createdAt,value
2018-06-19T00:01:25.438Z,8.30
2018-06-19T00:03:52.707Z,7.73
2018-06-19T00:06:19.991Z,8.43
2018-06-19T00:08:47.279Z,8.13
2018-06-19T00:11:14.588Z,8.10
2018-06-19T00:13:41.852Z,7.57
2018-06-19T00:16:09.119Z,8.03
2018-06-19T00:18:44.378Z,8.13
2018-06-19T00:21:15.463Z,8.37
2018-06-19T00:23:42.776Z,8.13
2018-06-19T00:26:10.027Z,8.67
2018-06-19T00:28:39.823Z,8.90
2018-06-19T00:31:07.105Z,8.80
2018-06-19T00:33:34.395Z,8.60
2018-06-19T00:36:01.952Z,8.60
2018-06-19T00:38:29.234Z,8.70
2018-06-19T00:40:56.503Z,8.23
2018-06-19T00:43:23.760Z,9.07
2018-06-19T00:45:51.040Z,8.87
2018-06-19T00:48:18.307Z,8.20
2018-06-19T00:50:45.566Z,8.63
2018-06-19T00:53:12.867Z,8.40
2018-06-19T00:55:40.126Z,8.33
2018-06-19T00:58:07.411Z,8.57
2018-06-19T01:00:34.664Z,8.97
2018-06-19T01:03:01.972Z,8.90
2018-06-19T01:05:29.231Z,8.97
2018-06-19T01:07:56.504Z,7.90
2018-06-19T01:10:23.774Z,8.33
2018-06-19T01:12:51.097Z,8.70
2018-06-19T01:15:18.370Z,9.43
2018-06-19T01:17:45.603Z,8.67
2018-06-19T01:20:12.882Z,9.10
2018-06-19T01:22:40.156Z,8.60
2018-06-19T01:25:07.439Z,8.70
2018-06-19T01:27:34.691Z,9.03
2018-06-19T01:30:01.948Z,8.50
2018-06-19T01:32:29.200Z,9.07
2018-06-19T01:34:56.600Z,9.00
2018-06-19T01:37:24.106Z,8.77
2018-06-19T01:39:51.384Z,8.80
2018-06-19T01:42:18.646Z,9.27
2018-06-19T01:44:45.923Z,9.20
2018-06-19T01:47:13.188Z,8.87
2018-06-19T01:49:40.463Z,8.97
2018-06-19T01:52:07.741Z,9.07
2018-06-19T01:54:35.032Z,8.67
2018-06-19T01:57:02.324Z,9.47
2018-06-19T01:59:29.688Z,9.13
2018-06-19T02:01:56.986Z,9.60
2018-06-19T02:04:24.259Z,9.20
2018-06-19T02:06:51.539Z,9.30
2018-06-19T02:09:25.669Z,9.47
2018-06-19T02:11:52.947Z,9.63
2018-06-19T02:14:20.203Z,9.43
2018-06-19T02:16:47.492Z,9.70
2018-06-19T02:19:14.755Z,9.40
2018-06-19T02:21:42.028Z,9.07
2018-06-19T02:24:09.301Z,9.60
2018-06-19T02:26:36.567Z,9.20
2018-06-19T02:29:03.900Z,9.60
2018-06-19T02:31:31.155Z,9.00
2018-06-19T02:33:58.398Z,8.23
2018-06-19T02:36:25.654Z,8.20
2018-06-19T02:38:52.914Z,8.30
2018-06-19T02:41:20.184Z,8.30
2018-06-19T02:43:47.482Z,8.97
2018-06-19T02:46:14.762Z,9.13
2018-06-19T02:48:42.031Z,8.63
2018-06-19T02:51:09.292Z,8.80
2018-06-19T02:53:36.562Z,8.23
2018-06-19T02:56:03.872Z,8.90
2018-06-19T02:58:31.171Z,8.80
2018-06-19T03:00:58.887Z,8.57
2018-06-19T03:03:26.157Z,8.80
2018-06-19T03:05:53.420Z,8.40
2018-06-19T03:08:20.698Z,8.40
2018-06-19T03:10:47.967Z,8.90
2018-06-19T03:13:15.255Z,8.27
2018-06-19T03:15:42.487Z,8.30
2018-06-19T03:18:09.770Z,8.53
2018-06-19T03:20:37.042Z,8.87
2018-06-19T03:23:04.523Z,7.60
2018-06-19T03:25:31.762Z,8.47
2018-06-19T03:27:59.031Z,7.63
2018-06-19T03:30:26.292Z,8.03
2018-06-19T03:32:53.544Z,8.20
2018-06-19T03:35:20.803Z,8.20
2018-06-19T03:37:48.071Z,7.63
2018-06-19T03:40:15.316Z,8.43
2018-06-19T03:42:43.049Z,9.07
2018-06-19T03:45:10.301Z,9.17
2018-06-19T03:47:37.592Z,8.23
2018-06-19T03:50:05.195Z,8.17
2018-06-19T03:52:32.454Z,8.30
2018-06-19T03:54:59.695Z,8.60
2018-06-19T03:57:26.964Z,7.70
2018-06-19T03:59:54.240Z,9.10
2018-06-19T04:02:21.478Z,8.20
2018-06-19T04:04:48.758Z,8.43
2018-06-19T04:07:15.999Z,8.43
2018-06-19T04:09:43.258Z,8.00
2018-06-19T04:12:10.514Z,8.17
2018-06-19T04:14:37.779Z,8.50
2018-06-19T04:17:05.206Z,8.50
2018-06-19T04:19:32.443Z,8.53
2018-06-19T04:21:59.706Z,8.27
2018-06-19T04:24:27.812Z,8.53
2018-06-19T04:26:55.624Z,8.00
2018-06-19T04:29:22.893Z,8.00
2018-06-19T04:31:50.164Z,7.63
2018-06-19T04:34:17.419Z,7.70
2018-06-19T04:36:45.315Z,8.00
2018-06-19T04:39:12.763Z,7.80
2018-06-19T04:41:40.257Z,7.77
2018-06-19T04:44:07.882Z,8.03
2018-06-19T04:46:35.303Z,7.50
2018-06-19T04:49:02.545Z,7.83
2018-06-19T04:51:29.787Z,7.47
2018-06-19T04:53:57.036Z,7.60
2018-06-19T04:56:24.287Z,7.73
2018-06-19T04:58:51.558Z,7.50
2018-06-19T05:01:18.899Z,7.17
2018-06-19T05:03:46.156Z,7.23
2018-06-19T05:06:13.401Z,7.43
2018-06-19T05:08:40.919Z,7.53
2018-06-19T05:11:08.170Z,7.27
2018-06-19T05:13:35.408Z,7.77
2018-06-19T05:16:02.683Z,6.93
2018-06-19T05:18:29.923Z,7.27
2018-06-19T05:20:57.210Z,7.50
2018-06-19T05:23:24.475Z,7.03
2018-06-19T05:25:51.735Z,6.73
2018-06-19T05:28:18.975Z,7.00
2018-06-19T05:30:46.247Z,6.73
2018-06-19T05:33:13.502Z,7.05
2018-06-19T05:35:40.791Z,6.17
2018-06-19T05:38:08.037Z,5.45
2018-06-19T05:40:35.280Z,6.27
2018-06-19T05:43:02.632Z,6.00
2018-06-19T05:45:29.874Z,5.00
2018-06-19T05:47:57.166Z,5.62
2018-06-19T05:50:24.419Z,5.50
2018-06-19T05:52:51.770Z,5.58
2018-06-19T05:55:19.132Z,5.47
2018-06-19T05:57:46.392Z,5.37
2018-06-19T06:00:13.662Z,5.53
2018-06-19T06:02:40.922Z,5.12
2018-06-19T06:05:08.175Z,5.60
2018-06-19T06:07:35.435Z,5.62
2018-06-19T06:10:02.708Z,5.05
2018-06-19T06:12:29.972Z,5.55
2018-06-19T06:14:57.612Z,5.60
2018-06-19T06:17:24.875Z,4.95
2018-06-19T06:19:52.156Z,5.37
2018-06-19T06:22:19.447Z,4.97
2018-06-19T06:24:46.687Z,5.58
2018-06-19T06:27:14.002Z,5.22
2018-06-19T06:29:41.256Z,5.12
2018-06-19T06:32:08.549Z,4.62
2018-06-19T06:34:35.800Z,4.90
2018-06-19T06:37:03.115Z,4.78
2018-06-19T06:39:30.388Z,4.75
2018-06-19T06:41:57.627Z,4.25
2018-06-19T06:44:24.896Z,4.47
2018-06-19T06:46:52.136Z,4.10
2018-06-19T06:49:19.419Z,4.20
2018-06-19T06:51:46.679Z,4.28
2018-06-19T06:54:13.979Z,4.10
2018-06-19T06:56:41.223Z,4.00
2018-06-19T06:59:08.470Z,5.00
2018-06-19T07:01:35.691Z,4.05
2018-06-19T07:04:03.247Z,4.28
2018-06-19T07:06:30.903Z,4.20
2018-06-19T07:08:58.181Z,4.45
2018-06-19T07:11:25.414Z,4.10
2018-06-19T07:13:52.675Z,3.67
2018-06-19T07:16:19.952Z,3.70
2018-06-19T07:18:47.510Z,3.62
2018-06-19T07:21:14.768Z,3.72
2018-06-19T07:23:42.000Z,3.45
2018-06-19T07:26:09.329Z,4.20
2018-06-19T07:28:36.543Z,4.20
2018-06-19T07:31:03.944Z,3.75
2018-06-19T07:33:31.211Z,4.50
2018-06-19T07:35:58.474Z,4.00
2018-06-19T07:38:25.801Z,4.37
2018-06-19T07:40:53.059Z,4.85
2018-06-19T07:43:20.363Z,3.60
2018-06-19T07:45:47.611Z,3.75
2018-06-19T07:48:14.864Z,3.17
2018-06-19T07:50:42.125Z,3.47
2018-06-19T07:53:09.395Z,3.70
2018-06-19T07:55:36.711Z,3.35
2018-06-19T07:58:03.993Z,3.87
2018-06-19T08:00:31.284Z,3.92
2018-06-19T08:02:58.539Z,3.22
2018-06-19T08:05:25.799Z,3.80
2018-06-19T08:07:53.061Z,3.20
2018-06-19T08:10:20.293Z,3.10
2018-06-19T08:12:48.102Z,3.20
2018-06-19T08:15:15.363Z,2.72
2018-06-19T08:17:42.634Z,2.67
2018-06-19T08:20:10.291Z,3.20
2018-06-19T08:22:38.184Z,2.87
2018-06-19T08:25:05.447Z,3.00
2018-06-19T08:27:32.751Z,2.83
2018-06-19T08:29:59.958Z,2.72
2018-06-19T08:32:27.220Z,2.77
2018-06-19T08:34:54.477Z,2.67
2018-06-19T08:37:21.740Z,2.85
2018-06-19T08:39:48.964Z,2.60
2018-06-19T08:42:16.240Z,2.87
2018-06-19T08:44:43.481Z,2.72
2018-06-19T08:47:10.779Z,2.98
2018-06-19T08:49:38.087Z,2.70
2018-06-19T08:52:05.348Z,2.72
2018-06-19T08:54:32.612Z,2.67
2018-06-19T08:56:59.920Z,2.77
2018-06-19T08:59:27.218Z,2.60
2018-06-19T09:01:54.523Z,2.67
2018-06-19T09:04:21.869Z,2.83
2018-06-19T09:06:49.179Z,2.58
2018-06-19T09:09:16.437Z,2.52
2018-06-19T09:11:43.679Z,2.65
2018-06-19T09:14:10.927Z,2.40
2018-06-19T09:16:38.205Z,2.62
2018-06-19T09:19:05.485Z,2.47
2018-06-19T09:21:32.755Z,2.30
2018-06-19T09:24:00.059Z,2.58
2018-06-19T09:26:27.335Z,2.12
2018-06-19T09:28:54.594Z,2.92
2018-06-19T09:31:21.949Z,2.60
2018-06-19T09:33:49.312Z,2.70
2018-06-19T09:36:16.555Z,2.40
2018-06-19T09:38:43.820Z,2.60
2018-06-19T09:41:11.566Z,2.50
2018-06-19T09:43:38.854Z,2.40
2018-06-19T09:46:06.119Z,2.30
2018-06-19T09:48:33.374Z,2.40
2018-06-19T09:51:00.666Z,2.37
2018-06-19T09:53:27.927Z,2.60
2018-06-19T09:55:55.239Z,2.25
2018-06-19T09:58:22.620Z,2.05
2018-06-19T10:00:49.980Z,2.20
2018-06-19T10:03:17.378Z,2.20
2018-06-19T10:05:44.757Z,2.37
2018-06-19T10:08:11.980Z,2.50
2018-06-19T10:10:39.311Z,2.47
2018-06-19T10:13:07.052Z,1.95
2018-06-19T10:15:34.380Z,2.00
2018-06-19T10:18:01.691Z,2.00
2018-06-19T10:20:29.044Z,2.47
2018-06-19T10:22:56.288Z,2.05
2018-06-19T10:25:23.659Z,2.10
2018-06-19T10:27:50.963Z,2.58
2018-06-19T10:30:18.243Z,2.30
2018-06-19T10:32:45.596Z,2.15
2018-06-19T10:35:13.007Z,2.20
2018-06-19T10:37:40.267Z,2.00
2018-06-19T10:40:07.715Z,1.98
2018-06-19T10:42:35.031Z,2.00
2018-06-19T10:45:02.572Z,1.92
2018-06-19T10:47:29.908Z,1.95
2018-06-19T10:49:57.166Z,2.00
2018-06-19T10:52:24.436Z,1.92
2018-06-19T10:54:51.975Z,1.85
2018-06-19T10:57:19.260Z,1.87
2018-06-19T10:59:46.768Z,1.90
2018-06-19T11:02:14.090Z,1.70
2018-06-19T11:04:41.335Z,1.80
2018-06-19T11:07:08.722Z,1.70
2018-06-19T11:09:35.964Z,1.70
2018-06-19T11:12:03.235Z,1.90
2018-06-19T11:14:30.467Z,1.70
2018-06-19T11:16:57.740Z,2.00
2018-06-19T11:19:25.006Z,1.92
2018-06-19T11:21:52.472Z,1.70
2018-06-19T11:24:19.730Z,2.00
2018-06-19T11:26:47.032Z,2.20
2018-06-19T11:29:14.339Z,2.27
2018-06-19T11:31:41.582Z,2.27
2018-06-19T11:34:08.852Z,1.92
2018-06-19T11:36:36.121Z,2.27
2018-06-19T11:39:06.254Z,1.80
2018-06-19T11:41:33.519Z,2.10
2018-06-19T11:44:00.817Z,1.80
2018-06-19T11:46:28.068Z,1.65
2018-06-19T11:48:55.387Z,1.80
2018-06-19T11:51:22.743Z,1.70
2018-06-19T11:53:49.962Z,1.82
2018-06-19T11:56:17.223Z,1.77
2018-06-19T11:58:44.834Z,1.77
2018-06-19T12:01:12.146Z,1.80
2018-06-19T12:03:39.351Z,2.10
2018-06-19T12:06:06.604Z,2.12
2018-06-19T12:08:33.866Z,2.35
2018-06-19T12:11:01.167Z,2.02
2018-06-19T12:13:28.454Z,1.82
2018-06-19T12:15:55.756Z,1.70
2018-06-19T12:18:23.216Z,2.17
2018-06-19T12:20:50.538Z,1.90
2018-06-19T12:23:17.826Z,1.80
2018-06-19T12:25:45.077Z,2.00
2018-06-19T12:28:12.359Z,1.77
2018-06-19T12:30:39.619Z,1.92
2018-06-19T12:33:06.881Z,1.70
2018-06-19T12:35:34.155Z,1.70
2018-06-19T12:38:01.416Z,1.95
2018-06-19T12:40:28.696Z,1.72
2018-06-19T12:42:56.227Z,1.90
2018-06-19T12:45:23.500Z,1.80
2018-06-19T12:47:50.766Z,2.00
2018-06-19T12:50:31.838Z,2.10
2018-06-19T12:53:11.483Z,1.60
2018-06-19T12:55:50.898Z,1.67
2018-06-19T12:58:18.356Z,1.90
2018-06-19T13:00:45.796Z,2.10
2018-06-19T13:03:25.012Z,1.92
2018-06-19T13:06:04.065Z,1.80
2018-06-19T13:08:31.399Z,1.95
2018-06-19T13:10:58.986Z,1.75
2018-06-19T13:13:37.777Z,1.80
2018-06-19T13:16:10.896Z,1.90
2018-06-19T13:19:52.070Z,1.70
2018-06-19T13:22:19.361Z,1.90
2018-06-19T13:24:46.685Z,1.85
2018-06-19T13:27:14.179Z,1.80
2018-06-19T13:29:59.011Z,2.17
2018-06-19T13:32:26.606Z,2.10
2018-06-19T13:34:53.880Z,1.92
2018-06-19T13:37:21.203Z,1.70
2018-06-19T13:40:00.902Z,1.72
2018-06-19T13:42:39.644Z,1.85
2018-06-19T13:45:07.676Z,1.77
2018-06-19T13:47:34.977Z,1.60
2018-06-19T13:50:02.398Z,1.60
2018-06-19T13:52:29.682Z,1.60
2018-06-19T13:55:02.627Z,1.42
2018-06-19T13:57:42.768Z,2.00
2018-06-19T14:00:13.799Z,1.70
2018-06-19T14:02:41.185Z,1.80
2018-06-19T14:05:09.052Z,1.80
2018-06-19T14:07:46.592Z,1.90
2018-06-19T14:10:27.334Z,1.80
2018-06-19T14:12:56.884Z,1.70
2018-06-19T14:15:24.316Z,1.80
2018-06-19T14:17:51.586Z,1.87
2018-06-19T14:20:18.873Z,1.82
2018-06-19T14:22:46.136Z,1.70
2018-06-19T14:25:13.402Z,1.60
2018-06-19T14:27:40.674Z,1.80
2018-06-19T14:30:08.000Z,1.92
2018-06-19T14:32:35.405Z,1.80
2018-06-19T14:35:15.797Z,1.70
2018-06-19T14:37:43.342Z,1.60
2018-06-19T14:40:10.804Z,1.80
2018-06-19T14:42:38.107Z,1.90
2018-06-19T14:45:06.084Z,1.90
2018-06-19T14:47:33.356Z,1.77
2018-06-19T14:50:00.615Z,1.72
2018-06-19T14:52:28.114Z,1.82
2018-06-19T14:54:55.346Z,1.65
2018-06-19T14:57:22.590Z,1.80
2018-06-19T14:59:49.848Z,1.67
2018-06-19T15:02:17.086Z,1.70
2018-06-19T15:04:44.347Z,1.90
2018-06-19T15:07:11.627Z,1.70
2018-06-19T15:09:38.908Z,1.80
2018-06-19T15:12:06.199Z,1.50
2018-06-19T15:14:33.476Z,1.98
2018-06-19T15:17:01.132Z,1.70
2018-06-19T15:19:28.404Z,1.57
2018-06-19T15:21:55.904Z,1.77
2018-06-19T15:24:23.160Z,1.75
2018-06-19T15:26:50.430Z,1.80
2018-06-19T15:29:17.676Z,1.90
2018-06-19T15:31:44.924Z,1.90
2018-06-19T15:34:12.167Z,1.95
2018-06-19T15:36:39.477Z,1.82
2018-06-19T15:39:08.655Z,1.70
2018-06-19T15:41:36.095Z,1.85
2018-06-19T15:44:03.556Z,1.90
2018-06-19T15:46:30.783Z,1.92
2018-06-19T15:48:58.075Z,1.57
2018-06-19T15:51:25.366Z,1.80
2018-06-19T15:53:52.642Z,2.00
2018-06-19T15:56:19.938Z,1.55
2018-06-19T15:58:47.207Z,1.60
2018-06-19T16:01:14.509Z,2.00
2018-06-19T16:03:41.779Z,1.80
2018-06-19T16:06:09.048Z,1.85
2018-06-19T16:08:36.303Z,1.95
2018-06-19T16:11:03.607Z,1.92
2018-06-19T16:13:30.849Z,2.00
2018-06-19T16:15:58.140Z,2.00
2018-06-19T16:18:25.403Z,1.90
2018-06-19T16:20:52.699Z,1.95
2018-06-19T16:23:19.939Z,2.00
2018-06-19T16:25:47.179Z,1.70
2018-06-19T16:28:14.443Z,2.00
2018-06-19T16:30:41.762Z,1.77
2018-06-19T16:33:09.008Z,2.10
2018-06-19T16:35:36.252Z,2.20
2018-06-19T16:38:03.706Z,2.00
2018-06-19T16:40:30.995Z,1.75
2018-06-19T16:42:58.259Z,2.50
2018-06-19T16:45:25.558Z,1.98
2018-06-19T16:47:52.779Z,1.90
2018-06-19T16:50:20.020Z,2.40
2018-06-19T16:52:48.186Z,2.10
2018-06-19T16:55:15.451Z,2.22
2018-06-19T16:57:45.156Z,1.87
2018-06-19T17:00:12.508Z,2.10
2018-06-19T17:02:39.737Z,1.92
2018-06-19T17:05:06.999Z,1.80
2018-06-19T17:07:34.231Z,2.10
2018-06-19T17:10:01.493Z,2.10
2018-06-19T17:12:28.756Z,2.10
2018-06-19T17:14:56.008Z,2.00
2018-06-19T17:17:23.314Z,2.15
2018-06-19T17:19:50.591Z,2.10
2018-06-19T17:22:17.864Z,2.35
2018-06-19T17:24:45.147Z,2.33
2018-06-19T17:27:12.412Z,2.00
2018-06-19T17:29:39.664Z,2.10
2018-06-19T17:32:06.919Z,2.30
2018-06-19T17:34:34.388Z,2.35
2018-06-19T17:37:01.796Z,2.22
2018-06-19T17:39:29.022Z,2.77
2018-06-19T17:41:56.276Z,2.40
2018-06-19T17:44:23.531Z,2.12
2018-06-19T17:46:50.828Z,2.30
2018-06-19T17:49:18.087Z,2.02
2018-06-19T17:51:45.475Z,2.27
2018-06-19T17:54:12.744Z,2.10
2018-06-19T17:56:40.006Z,2.50
2018-06-19T17:59:07.276Z,2.40
2018-06-19T18:01:34.543Z,2.12
2018-06-19T18:04:01.831Z,2.55
2018-06-19T18:06:29.099Z,2.77
2018-06-19T18:08:56.359Z,2.55
2018-06-19T18:11:24.493Z,2.20
2018-06-19T18:13:51.808Z,2.42
2018-06-19T18:16:19.072Z,2.50
2018-06-19T18:18:46.375Z,2.20
2018-06-19T18:21:13.647Z,2.45
2018-06-19T18:23:40.980Z,2.30
2018-06-19T18:26:08.237Z,2.65
2018-06-19T18:28:35.600Z,2.60
2018-06-19T18:31:02.898Z,2.60
2018-06-19T18:33:30.182Z,2.40
2018-06-19T18:35:57.460Z,2.55
2018-06-19T18:38:25.095Z,2.40
2018-06-19T18:40:52.426Z,2.62
2018-06-19T18:43:19.768Z,3.00
2018-06-19T18:45:47.065Z,2.60
2018-06-19T18:48:14.331Z,2.55
2018-06-19T18:50:41.615Z,2.77
2018-06-19T18:53:08.907Z,2.62
2018-06-19T18:55:36.205Z,2.52
2018-06-19T18:58:03.494Z,2.90
2018-06-19T19:00:30.782Z,2.80
2018-06-19T19:02:58.138Z,2.60
2018-06-19T19:05:25.551Z,2.70
2018-06-19T19:07:52.839Z,2.80
2018-06-19T19:10:25.801Z,2.52
2018-06-19T19:12:53.410Z,2.70
2018-06-19T19:15:26.489Z,2.92
2018-06-19T19:17:59.436Z,3.00
2018-06-19T19:20:26.872Z,2.77
2018-06-19T19:22:54.328Z,2.90
2018-06-19T19:25:21.931Z,2.65
2018-06-19T19:27:59.424Z,2.77
2018-06-19T19:30:26.772Z,2.95
2018-06-19T19:32:54.107Z,3.10
2018-06-19T19:35:21.546Z,2.90
2018-06-19T19:37:55.324Z,3.15
2018-06-19T19:40:22.807Z,3.30
2018-06-19T19:42:50.141Z,2.90
2018-06-19T19:45:17.508Z,3.10
2018-06-19T19:47:51.294Z,3.20
2018-06-19T19:50:18.591Z,3.00
2018-06-19T19:52:46.033Z,3.17
2018-06-19T19:55:13.359Z,3.02
2018-06-19T19:57:46.596Z,3.22
2018-06-19T20:00:19.033Z,3.40
2018-06-19T20:02:46.875Z,3.42
2018-06-19T20:05:14.191Z,3.37
2018-06-19T20:07:41.456Z,3.40
2018-06-19T20:10:08.755Z,3.70
2018-06-19T20:12:36.066Z,3.70
2018-06-19T20:15:03.627Z,3.60
2018-06-19T20:17:30.907Z,3.65
2018-06-19T20:19:58.509Z,3.47
2018-06-19T20:22:25.874Z,3.83
2018-06-19T20:24:53.120Z,3.45
2018-06-19T20:27:20.392Z,3.50
2018-06-19T20:29:47.948Z,3.45
2018-06-19T20:32:15.276Z,4.20
2018-06-19T20:34:42.547Z,3.85
2018-06-19T20:37:09.828Z,3.83
2018-06-19T20:39:37.112Z,4.20
2018-06-19T20:42:04.443Z,5.35
2018-06-19T20:44:31.755Z,4.05
2018-06-19T20:46:59.152Z,5.22
2018-06-19T20:49:26.616Z,3.95
2018-06-19T20:51:53.925Z,5.20
2018-06-19T20:54:21.308Z,3.95
2018-06-19T20:56:48.768Z,4.35
2018-06-19T20:59:16.129Z,8.65
2018-06-19T21:01:43.755Z,6.55
2018-06-19T21:04:11.119Z,7.97
2018-06-19T21:06:38.462Z,7.65
2018-06-19T21:09:10.025Z,3.98
2018-06-19T21:11:37.323Z,4.58
2018-06-19T21:14:04.636Z,3.98
2018-06-19T21:16:31.983Z,5.45
2018-06-19T21:18:59.292Z,5.20
2018-06-19T21:21:26.981Z,4.22
2018-06-19T21:23:54.299Z,4.30
2018-06-19T21:26:21.588Z,4.28
2018-06-19T21:28:48.871Z,4.33
2018-06-19T21:31:16.187Z,4.03
2018-06-19T21:33:43.544Z,4.42
2018-06-19T21:36:11.132Z,4.72
2018-06-19T21:38:38.516Z,4.72
2018-06-19T21:41:06.244Z,5.05
2018-06-19T21:43:33.594Z,4.47
2018-06-19T21:46:00.964Z,4.60
2018-06-19T21:48:28.309Z,6.90
2018-06-19T21:50:55.870Z,9.23
2018-06-19T21:53:23.186Z,11.40
2018-06-19T21:55:50.554Z,10.13
2018-06-19T21:58:18.008Z,5.28
2018-06-19T22:00:45.315Z,4.90
2018-06-19T22:03:12.756Z,4.72
2018-06-19T22:05:40.008Z,4.70
2018-06-19T22:08:07.324Z,5.25
2018-06-19T22:10:34.678Z,5.50
2018-06-19T22:13:01.977Z,14.20
2018-06-19T22:15:29.351Z,10.88
2018-06-19T22:17:57.211Z,10.58
2018-06-19T22:20:24.735Z,14.70
2018-06-19T22:22:52.326Z,12.50
2018-06-19T22:25:19.666Z,9.65
2018-06-19T22:27:47.408Z,8.90
2018-06-19T22:30:14.707Z,6.97
2018-06-19T22:32:42.045Z,6.75
2018-06-19T22:35:09.414Z,6.05
2018-06-19T22:37:36.687Z,5.92
2018-06-19T22:40:04.024Z,6.17
2018-06-19T22:42:31.904Z,5.97
2018-06-19T22:44:59.356Z,6.10
2018-06-19T22:47:26.748Z,5.97
2018-06-19T22:49:54.043Z,6.00
2018-06-19T22:52:21.533Z,6.12
2018-06-19T22:54:48.881Z,5.85
2018-06-19T22:57:16.183Z,5.87
2018-06-19T22:59:44.176Z,5.30
2018-06-19T23:02:11.654Z,5.90
2018-06-19T23:04:39.039Z,5.55
2018-06-19T23:07:06.311Z,5.87
2018-06-19T23:09:33.651Z,5.80
2018-06-19T23:12:01.015Z,5.60
2018-06-19T23:14:28.274Z,6.10
2018-06-19T23:16:55.626Z,6.00
2018-06-19T23:19:22.887Z,6.37
2018-06-19T23:21:50.299Z,6.08
2018-06-19T23:24:17.795Z,5.80
2018-06-19T23:26:45.123Z,5.92
2018-06-19T23:29:12.529Z,6.05
2018-06-19T23:31:39.813Z,6.70
2018-06-19T23:34:07.376Z,6.07
2018-06-19T23:36:34.696Z,5.83
2018-06-19T23:39:02.473Z,6.40
2018-06-19T23:41:29.743Z,6.65
2018-06-19T23:43:57.279Z,6.60
2018-06-19T23:46:24.567Z,6.30
2018-06-19T23:48:51.892Z,6.43
2018-06-19T23:51:19.297Z,6.50
2018-06-19T23:53:46.612Z,6.50
2018-06-19T23:56:14.389Z,6.78
2018-06-19T23:58:42.052Z,6.60
